»·PEaware :: UAL576 KSUN-KCOS

UAL576 :: KSUN-KCOS

FLIGHT INFORMATION

Flight Status: Arrived
Operator:
United Airlines
More flights by this operator :: More flights under this callsign
Pilot: Anonymous 8274 (8274)
Aircraft: BOEING 737-200
(B732)
More flights by this aircraft type
Origin: KSUN Friedman Meml
United States
Destination: KCOS City Of Colorado Springs Mun
United States
More flights between these airports :: More routes between these airports
Route: +HLE PIH J20 OCS J206 HBU DBRY3
File this flight plan on PilotEdge
Remarks:
Altitude:
(Current/Filed)
29,000ft
Speed:
(Current/Filed)
470kts
Departed: 05-Oct-18 04:31 PM
Arrived: 05-Oct-18 06:07 PM
Distance/Time
Traveled:
517nm/1:35
Distance/Time
To Go:
Arrived

Flight Plot

Page will automatically refresh every two minutes.

Flight plan parsing failed; only flown route is shown


Map Options




Map Legend


Flown Route
Filed Route
Departure Airport
Arrival Airport
Navaid (VOR, NDB)
Fix

Horizontal Profiles

Position Reports

Time Latitude Longitude Heading Altitude Ground
Speed
05-Oct-18 16:04 43.507209 -114.301049 159 5299ft 0kts
05-Oct-18 16:05 43.507209 -114.301049 159 5299ft 0kts
05-Oct-18 16:06 43.507209 -114.301049 159 5299ft 0kts
05-Oct-18 16:07 43.507209 -114.301049 159 5299ft 0kts
05-Oct-18 16:08 43.507209 -114.301049 159 5299ft 0kts
05-Oct-18 16:09 43.507209 -114.301049 159 5299ft 0kts
05-Oct-18 16:10 43.507209 -114.301049 159 5299ft 0kts
05-Oct-18 16:11 43.507209 -114.301049 159 5299ft 0kts
05-Oct-18 16:12 43.507209 -114.301049 159 5299ft 0kts
05-Oct-18 16:13 43.507209 -114.301049 159 5299ft 0kts
05-Oct-18 16:14 43.507209 -114.301049 159 5299ft 0kts
05-Oct-18 16:15 43.507209 -114.301049 159 5299ft 0kts
05-Oct-18 16:16 43.507209 -114.301049 159 5299ft 0kts
05-Oct-18 16:17 43.507209 -114.301049 159 5299ft 0kts
05-Oct-18 16:18 43.507209 -114.301049 159 5299ft 0kts
05-Oct-18 16:19 43.507209 -114.301049 159 5299ft 0kts
05-Oct-18 16:20 43.507209 -114.301049 159 5299ft 0kts
05-Oct-18 16:21 43.507209 -114.301049 159 5299ft 0kts
05-Oct-18 16:22 43.507209 -114.301049 159 5299ft 0kts
05-Oct-18 16:23 43.507330 -114.301111 159 5299ft 2kts
05-Oct-18 16:24 43.507533 -114.301582 52 5299ft 0kts
05-Oct-18 16:25 43.507532 -114.301584 52 5299ft 0kts
05-Oct-18 16:26 43.507532 -114.301584 52 5299ft 0kts
05-Oct-18 16:27 43.507532 -114.301584 52 5299ft 0kts
05-Oct-18 16:28 43.507656 -114.301357 53 5299ft 5kts
05-Oct-18 16:29 43.509723 -114.302839 325 5299ft 12kts
05-Oct-18 16:30 43.511382 -114.304358 351 5299ft 0kts
05-Oct-18 16:31 43.511382 -114.304358 351 5299ft 0kts
05-Oct-18 16:32 43.511498 -114.303049 145 5299ft 18kts
05-Oct-18 16:33 43.485917 -114.277722 148 5947ft 154kts
05-Oct-18 16:34 43.442525 -114.261889 172 7164ft 184kts
05-Oct-18 16:35 43.385327 -114.249031 172 8726ft 233kts
05-Oct-18 16:36 43.313805 -114.235523 154 10481ft 285kts
05-Oct-18 16:37 43.275116 -114.130367 107 11942ft 342kts
05-Oct-18 16:38 43.253389 -114.023871 109 13585ft 359kts
05-Oct-18 16:39 43.212848 -113.871394 111 16080ft 367kts
05-Oct-18 16:40 43.180029 -113.762724 113 17578ft 375kts
05-Oct-18 16:41 43.131623 -113.606619 112 19389ft 388kts
05-Oct-18 16:42 43.099333 -113.491174 107 20541ft 395kts
05-Oct-18 16:43 43.065122 -113.349667 108 21817ft 402kts
05-Oct-18 16:44 43.029978 -113.204109 108 22935ft 409kts
05-Oct-18 16:45 42.991900 -113.057159 111 23981ft 415kts
05-Oct-18 16:46 42.946678 -112.911246 113 24896ft 421kts
05-Oct-18 16:47 42.899793 -112.770045 113 25693ft 426kts
05-Oct-18 16:48 42.856221 -112.620844 108 26415ft 431kts
05-Oct-18 16:49 42.812084 -112.468841 113 27069ft 435kts
05-Oct-18 16:50 42.765990 -112.320486 113 27859ft 434kts
05-Oct-18 16:51 42.716929 -112.171408 116 28471ft 435kts
05-Oct-18 16:52 42.664203 -112.022488 116 28959ft 439kts
05-Oct-18 16:53 42.613512 -111.870861 114 29133ft 450kts
05-Oct-18 16:54 42.562936 -111.714336 114 29159ft 461kts
05-Oct-18 16:55 42.511514 -111.554638 113 29157ft 463kts
05-Oct-18 16:56 42.460351 -111.395092 113 29158ft 462kts
05-Oct-18 16:57 42.409778 -111.237594 115 29154ft 460kts
05-Oct-18 16:58 42.355561 -111.081249 115 29155ft 459kts
05-Oct-18 16:59 42.301686 -110.925418 115 29156ft 459kts
05-Oct-18 17:00 42.247966 -110.769370 115 29157ft 458kts
05-Oct-18 17:01 42.194646 -110.613758 115 29158ft 458kts
05-Oct-18 17:02 42.138275 -110.459947 119 29185ft 457kts
05-Oct-18 17:03 42.078561 -110.311160 119 29156ft 458kts
05-Oct-18 17:04 42.018405 -110.160532 119 29155ft 458kts
05-Oct-18 17:05 41.959047 -110.009195 117 29183ft 458kts
05-Oct-18 17:06 41.903200 -109.856050 117 29157ft 459kts
05-Oct-18 17:07 41.852828 -109.717208 117 29132ft 460kts
05-Oct-18 17:08 41.797316 -109.563353 116 29131ft 460kts
05-Oct-18 17:09 41.742213 -109.409804 116 29132ft 460kts
05-Oct-18 17:10 41.688314 -109.258639 117 29128ft 461kts
05-Oct-18 17:11 41.630786 -109.106763 121 29129ft 458kts
05-Oct-18 17:12 41.554121 -108.976414 140 29129ft 446kts
05-Oct-18 17:13 41.458390 -108.873283 144 29129ft 442kts
05-Oct-18 17:14 41.362082 -108.771762 144 29129ft 441kts
05-Oct-18 17:15 41.266252 -108.671357 145 29129ft 440kts
05-Oct-18 17:16 41.169617 -108.572786 145 29129ft 439kts
05-Oct-18 17:17 41.073365 -108.473994 145 29129ft 439kts
05-Oct-18 17:18 40.977022 -108.375440 145 29152ft 438kts
05-Oct-18 17:19 40.885505 -108.281663 145 29183ft 437kts
05-Oct-18 17:20 40.795300 -108.189115 145 29184ft 438kts
05-Oct-18 17:21 40.699167 -108.090359 145 29184ft 438kts
05-Oct-18 17:22 40.603560 -107.992012 145 29184ft 439kts
05-Oct-18 17:23 40.507775 -107.893352 145 29184ft 439kts
05-Oct-18 17:24 40.411278 -107.796792 147 29183ft 438kts
05-Oct-18 17:25 40.313582 -107.703045 146 29183ft 438kts
05-Oct-18 17:26 40.215662 -107.608964 146 29183ft 438kts
05-Oct-18 17:27 40.116667 -107.516583 148 29183ft 437kts
05-Oct-18 17:28 40.016462 -107.427102 148 29182ft 437kts
05-Oct-18 17:29 39.920427 -107.341257 149 29180ft 437kts
05-Oct-18 17:30 39.823207 -107.253747 149 29184ft 437kts
05-Oct-18 17:31 39.724283 -107.165148 148 29204ft 436kts
05-Oct-18 17:32 39.626155 -107.072744 145 29184ft 438kts
05-Oct-18 17:33 39.530155 -106.976422 145 29183ft 438kts
05-Oct-18 17:34 39.424417 -106.914054 182 29199ft 421kts
05-Oct-18 17:35 39.307195 -106.918258 183 29182ft 422kts
05-Oct-18 17:36 39.190386 -106.922636 183 29182ft 422kts
05-Oct-18 17:37 39.073130 -106.927017 183 29181ft 422kts
05-Oct-18 17:38 38.958533 -106.939455 189 29180ft 420kts
05-Oct-18 17:39 38.848279 -106.959322 189 29185ft 421kts
05-Oct-18 17:40 38.737206 -106.980926 192 29162ft 421kts
05-Oct-18 17:41 38.622328 -107.009261 192 29157ft 421kts
05-Oct-18 17:42 38.507486 -107.038180 192 29156ft 422kts
05-Oct-18 17:43 38.402894 -106.987084 128 29160ft 444kts
05-Oct-18 17:44 38.397320 -106.832907 72 29168ft 464kts
05-Oct-18 17:45 38.438850 -106.677985 74 29155ft 465kts
05-Oct-18 17:46 38.440832 -106.515908 97 29158ft 458kts
05-Oct-18 17:47 38.429290 -106.354400 97 29141ft 459kts
05-Oct-18 17:48 38.418877 -106.206905 98 29129ft 460kts
05-Oct-18 17:49 38.408138 -106.044635 98 29154ft 460kts
05-Oct-18 17:50 38.398296 -105.881687 97 29156ft 462kts
05-Oct-18 17:51 38.388480 -105.718566 98 29156ft 463kts
05-Oct-18 17:52 38.374718 -105.555885 99 29143ft 463kts
05-Oct-18 17:53 38.361659 -105.399576 99 27385ft 439kts
05-Oct-18 17:54 38.349693 -105.258625 99 25363ft 423kts
05-Oct-18 17:55 38.337104 -105.112584 98 23217ft 408kts
05-Oct-18 17:56 38.330352 -104.971478 96 21148ft 394kts
05-Oct-18 17:57 38.324142 -104.835119 96 19127ft 380kts
05-Oct-18 17:58 38.318198 -104.703248 96 17184ft 367kts
05-Oct-18 17:59 38.314866 -104.578048 77 14138ft 353kts
05-Oct-18 18:00 38.389403 -104.514932 351 11061ft 367kts
05-Oct-18 18:01 38.466822 -104.573343 313 9850ft 316kts
05-Oct-18 18:02 38.520830 -104.648513 330 8974ft 256kts
05-Oct-18 18:03 38.578329 -104.687117 357 8979ft 205kts
05-Oct-18 18:04 38.625852 -104.686926 3 8930ft 140kts
05-Oct-18 18:05 38.662237 -104.686869 6 8435ft 127kts
05-Oct-18 18:06 38.697757 -104.686172 4 7703ft 127kts
05-Oct-18 18:07 38.732814 -104.685857 3 7025ft 128kts
05-Oct-18 18:08 38.767589 -104.685883 3 6336ft 122kts
05-Oct-18 18:09 38.794947 -104.685770 0 6103ft 35kts
05-Oct-18 18:10 38.802636 -104.687237 326 6103ft 0kts
05-Oct-18 18:11 38.802636 -104.687237 326 6103ft 0kts
05-Oct-18 18:12 38.803121 -104.691636 269 6103ft 27kts
05-Oct-18 18:13 38.801390 -104.697300 180 6103ft 14kts
05-Oct-18 18:14 38.798638 -104.698688 94 6103ft 5kts

Navigation Log

Ident Type
Flight plan parsing failed, navigation log unavailable